Terminal Aerodrome Forecast
Issued by NWS

Home | Current Version | Previous Version | Text Only | Print | Product List | Glossary On
Versions: 1 2 3 4 5 6 7 8 9 10 11 12
000
FTUS43 KOAX 212321
TAFCDR
TAF
KCDR 212321Z 2200/2224 VRB04KT P6SM SKC
     FM221600 26011KT P6SM SCT250
     FM222000 25012G20KT P6SM SCT200=

USA.gov is the U.S. government's official web portal to all federal, state and local government web resources and services.